sensor_id;sensor_type;location;lat;lon;timestamp;pressure;altitude;pressure_sealevel;temperature;humidity
34235;BME280;20500;49.856;20.290;2023-02-26T00:00:10;97626.08;;;1.85;73.73
34235;BME280;20500;49.856;20.290;2023-02-26T00:03:19;97619.30;;;1.84;73.90
34235;BME280;20500;49.856;20.290;2023-02-26T00:06:26;97633.16;;;1.87;73.87
34235;BME280;20500;49.856;20.290;2023-02-26T00:09:33;97650.20;;;1.87;73.86
34235;BME280;20500;49.856;20.290;2023-02-26T00:12:41;97652.67;;;1.85;73.94
34235;BME280;20500;49.856;20.290;2023-02-26T00:15:47;97649.11;;;1.87;73.90
34235;BME280;20500;49.856;20.290;2023-02-26T00:18:57;97645.79;;;1.86;73.88
34235;BME280;20500;49.856;20.290;2023-02-26T00:22:05;97658.14;;;1.86;74.06
34235;BME280;20500;49.856;20.290;2023-02-26T00:25:12;97663.86;;;1.83;74.10
34235;BME280;20500;49.856;20.290;2023-02-26T00:28:19;97668.59;;;1.82;73.98
34235;BME280;20500;49.856;20.290;2023-02-26T00:31:26;97668.34;;;1.83;74.09
34235;BME280;20500;49.856;20.290;2023-02-26T00:34:33;97664.52;;;1.83;74.28
34235;BME280;20500;49.856;20.290;2023-02-26T00:37:59;97664.31;;;1.85;74.26
34235;BME280;20500;49.856;20.290;2023-02-26T00:41:08;97667.90;;;1.85;74.18
34235;BME280;20500;49.856;20.290;2023-02-26T00:44:16;97681.55;;;1.86;74.23
34235;BME280;20500;49.856;20.290;2023-02-26T00:47:28;97688.60;;;1.87;74.27
34235;BME280;20500;49.856;20.290;2023-02-26T00:50:39;97692.52;;;1.89;74.28
34235;BME280;20500;49.856;20.290;2023-02-26T00:53:54;97697.20;;;1.89;74.27
34235;BME280;20500;49.856;20.290;2023-02-26T00:57:04;97694.98;;;1.89;74.29
34235;BME280;20500;49.856;20.290;2023-02-26T01:00:14;97693.27;;;1.89;74.21
34235;BME280;20500;49.856;20.290;2023-02-26T01:03:21;97690.11;;;1.90;74.28
34235;BME280;20500;49.856;20.290;2023-02-26T01:06:29;97683.00;;;1.89;74.28
34235;BME280;20500;49.856;20.290;2023-02-26T01:09:38;97679.78;;;1.88;74.42
34235;BME280;20500;49.856;20.290;2023-02-26T01:12:46;97680.88;;;1.86;74.36
34235;BME280;20500;49.856;20.290;2023-02-26T01:15:58;97681.45;;;1.85;74.44
34235;BME280;20500;49.856;20.290;2023-02-26T01:19:12;97681.15;;;1.83;74.35
34235;BME280;20500;49.856;20.290;2023-02-26T01:22:26;97674.48;;;1.82;74.39
34235;BME280;20500;49.856;20.290;2023-02-26T01:25:38;97660.57;;;1.82;74.53
34235;BME280;20500;49.856;20.290;2023-02-26T01:28:47;97657.04;;;1.80;74.58
34235;BME280;20500;49.856;20.290;2023-02-26T01:31:58;97651.41;;;1.79;74.53
34235;BME280;20500;49.856;20.290;2023-02-26T01:35:12;97649.02;;;1.78;74.42
34235;BME280;20500;49.856;20.290;2023-02-26T01:38:26;97654.15;;;1.77;74.48
34235;BME280;20500;49.856;20.290;2023-02-26T01:41:39;97654.33;;;1.77;74.53
34235;BME280;20500;49.856;20.290;2023-02-26T01:44:57;97660.99;;;1.78;74.76
34235;BME280;20500;49.856;20.290;2023-02-26T01:48:06;97680.13;;;1.80;74.72
34235;BME280;20500;49.856;20.290;2023-02-26T01:51:16;97685.91;;;1.79;74.65
34235;BME280;20500;49.856;20.290;2023-02-26T01:54:24;97700.13;;;1.76;74.63
34235;BME280;20500;49.856;20.290;2023-02-26T01:57:30;97702.17;;;1.77;74.57
34235;BME280;20500;49.856;20.290;2023-02-26T02:00:37;97708.08;;;1.78;74.52
34235;BME280;20500;49.856;20.290;2023-02-26T02:03:41;97718.56;;;1.75;74.52
34235;BME280;20500;49.856;20.290;2023-02-26T02:06:48;97727.00;;;1.74;74.71
34235;BME280;20500;49.856;20.290;2023-02-26T02:09:55;97728.80;;;1.76;74.63
34235;BME280;20500;49.856;20.290;2023-02-26T02:13:04;97724.51;;;1.76;74.59
34235;BME280;20500;49.856;20.290;2023-02-26T02:16:22;97729.44;;;1.78;74.65
34235;BME280;20500;49.856;20.290;2023-02-26T02:23:09;97726.49;;;1.72;74.57
34235;BME280;20500;49.856;20.290;2023-02-26T02:26:46;97723.27;;;1.72;74.73
34235;BME280;20500;49.856;20.290;2023-02-26T02:33:46;97754.81;;;1.70;74.72
34235;BME280;20500;49.856;20.290;2023-02-26T02:36:57;97759.64;;;1.70;74.85
34235;BME280;20500;49.856;20.290;2023-02-26T02:40:08;97758.73;;;1.67;74.81
34235;BME280;20500;49.856;20.290;2023-02-26T02:43:18;97754.58;;;1.69;74.81
34235;BME280;20500;49.856;20.290;2023-02-26T02:46:28;97775.89;;;1.68;74.84
34235;BME280;20500;49.856;20.290;2023-02-26T02:49:40;97790.95;;;1.68;74.88
34235;BME280;20500;49.856;20.290;2023-02-26T02:52:51;97783.16;;;1.66;74.95
34235;BME280;20500;49.856;20.290;2023-02-26T02:56:04;97778.46;;;1.66;74.81
34235;BME280;20500;49.856;20.290;2023-02-26T02:59:17;97772.91;;;1.64;74.84
34235;BME280;20500;49.856;20.290;2023-02-26T03:02:30;97771.63;;;1.61;74.69
34235;BME280;20500;49.856;20.290;2023-02-26T03:05:39;97767.07;;;1.62;75.14
34235;BME280;20500;49.856;20.290;2023-02-26T03:08:43;97758.73;;;1.63;75.16
34235;BME280;20500;49.856;20.290;2023-02-26T03:11:51;97771.98;;;1.59;74.86
34235;BME280;20500;49.856;20.290;2023-02-26T03:14:57;97779.17;;;1.57;75.02
34235;BME280;20500;49.856;20.290;2023-02-26T03:18:11;97780.40;;;1.59;74.95
34235;BME280;20500;49.856;20.290;2023-02-26T03:21:28;97791.66;;;1.59;74.98
34235;BME280;20500;49.856;20.290;2023-02-26T03:24:39;97815.16;;;1.59;75.04
34235;BME280;20500;49.856;20.290;2023-02-26T03:27:56;97820.20;;;1.57;74.85
34235;BME280;20500;49.856;20.290;2023-02-26T03:31:07;97828.08;;;1.56;74.96
34235;BME280;20500;49.856;20.290;2023-02-26T03:34:20;97843.10;;;1.57;74.85
34235;BME280;20500;49.856;20.290;2023-02-26T03:37:34;97844.91;;;1.56;75.02
34235;BME280;20500;49.856;20.290;2023-02-26T03:40:46;97857.16;;;1.53;75.14
34235;BME280;20500;49.856;20.290;2023-02-26T03:43:57;97843.96;;;1.53;75.18
34235;BME280;20500;49.856;20.290;2023-02-26T03:47:07;97852.67;;;1.56;75.12
34235;BME280;20500;49.856;20.290;2023-02-26T03:50:21;97845.77;;;1.59;75.09
34235;BME280;20500;49.856;20.290;2023-02-26T03:53:37;97856.77;;;1.58;75.03
34235;BME280;20500;49.856;20.290;2023-02-26T03:56:46;97839.66;;;1.57;75.11
34235;BME280;20500;49.856;20.290;2023-02-26T03:59:53;97843.24;;;1.53;74.97
34235;BME280;20500;49.856;20.290;2023-02-26T04:03:02;97844.72;;;1.53;75.11
34235;BME280;20500;49.856;20.290;2023-02-26T04:06:13;97852.48;;;1.52;75.01
34235;BME280;20500;49.856;20.290;2023-02-26T04:09:21;97875.21;;;1.52;75.08
34235;BME280;20500;49.856;20.290;2023-02-26T04:12:28;97895.39;;;1.56;75.12
34235;BME280;20500;49.856;20.290;2023-02-26T04:15:34;97904.37;;;1.57;75.06
34235;BME280;20500;49.856;20.290;2023-02-26T04:18:41;97915.73;;;1.60;75.22
34235;BME280;20500;49.856;20.290;2023-02-26T04:21:48;97918.95;;;1.63;75.09
34235;BME280;20500;49.856;20.290;2023-02-26T04:24:54;97920.67;;;1.62;75.10
34235;BME280;20500;49.856;20.290;2023-02-26T04:28:00;97933.02;;;1.60;75.22
34235;BME280;20500;49.856;20.290;2023-02-26T04:31:07;97930.55;;;1.60;75.09
34235;BME280;20500;49.856;20.290;2023-02-26T04:34:14;97912.02;;;1.58;75.07
34235;BME280;20500;49.856;20.290;2023-02-26T04:37:18;97928.37;;;1.58;75.42
34235;BME280;20500;49.856;20.290;2023-02-26T04:40:24;97938.27;;;1.60;75.29
34235;BME280;20500;49.856;20.290;2023-02-26T04:43:31;97935.77;;;1.56;75.10
34235;BME280;20500;49.856;20.290;2023-02-26T04:46:38;97930.75;;;1.51;75.05
34235;BME280;20500;49.856;20.290;2023-02-26T04:49:44;97920.96;;;1.43;74.89
34235;BME280;20500;49.856;20.290;2023-02-26T04:52:50;97924.88;;;1.29;74.56
34235;BME280;20500;49.856;20.290;2023-02-26T04:55:54;97925.30;;;1.16;74.56
34235;BME280;20500;49.856;20.290;2023-02-26T04:59:01;97932.89;;;1.00;74.37
34235;BME280;20500;49.856;20.290;2023-02-26T05:02:07;97927.56;;;0.91;74.45
34235;BME280;20500;49.856;20.290;2023-02-26T05:05:11;97950.90;;;0.82;74.38
34235;BME280;20500;49.856;20.290;2023-02-26T05:08:18;97940.31;;;0.79;74.37
34235;BME280;20500;49.856;20.290;2023-02-26T05:11:24;97937.52;;;0.75;74.17
34235;BME280;20500;49.856;20.290;2023-02-26T05:14:28;97945.94;;;0.69;74.08
34235;BME280;20500;49.856;20.290;2023-02-26T05:17:35;97949.14;;;0.65;74.40
34235;BME280;20500;49.856;20.290;2023-02-26T05:20:42;97947.61;;;0.61;74.11
34235;BME280;20500;49.856;20.290;2023-02-26T05:23:48;97956.50;;;0.56;74.09
34235;BME280;20500;49.856;20.290;2023-02-26T05:26:54;97964.33;;;0.52;74.17
34235;BME280;20500;49.856;20.290;2023-02-26T05:30:01;97964.20;;;0.47;74.05
34235;BME280;20500;49.856;20.290;2023-02-26T05:33:07;97971.48;;;0.44;73.99
34235;BME280;20500;49.856;20.290;2023-02-26T05:36:13;97988.28;;;0.42;73.94
34235;BME280;20500;49.856;20.290;2023-02-26T05:39:18;97995.21;;;0.42;73.92
34235;BME280;20500;49.856;20.290;2023-02-26T05:42:24;98002.36;;;0.46;74.16
34235;BME280;20500;49.856;20.290;2023-02-26T05:45:30;98011.94;;;0.48;74.10
34235;BME280;20500;49.856;20.290;2023-02-26T05:48:37;98022.98;;;0.53;74.08
34235;BME280;20500;49.856;20.290;2023-02-26T05:51:43;98039.45;;;0.58;74.15
34235;BME280;20500;49.856;20.290;2023-02-26T05:54:47;98042.23;;;0.63;74.17
34235;BME280;20500;49.856;20.290;2023-02-26T05:57:54;98050.91;;;0.65;74.15
34235;BME280;20500;49.856;20.290;2023-02-26T06:01:00;98059.06;;;0.66;74.04
34235;BME280;20500;49.856;20.290;2023-02-26T06:04:07;98073.43;;;0.67;74.02
34235;BME280;20500;49.856;20.290;2023-02-26T06:07:13;98082.45;;;0.70;74.07
34235;BME280;20500;49.856;20.290;2023-02-26T06:10:20;98080.78;;;0.72;74.03
34235;BME280;20500;49.856;20.290;2023-02-26T06:13:26;98085.29;;;0.74;73.81
34235;BME280;20500;49.856;20.290;2023-02-26T06:16:32;98092.77;;;0.74;73.90
34235;BME280;20500;49.856;20.290;2023-02-26T06:19:39;98094.61;;;0.75;73.78
34235;BME280;20500;49.856;20.290;2023-02-26T06:22:44;98091.73;;;0.75;73.83
34235;BME280;20500;49.856;20.290;2023-02-26T06:25:50;98093.27;;;0.74;73.78
34235;BME280;20500;49.856;20.290;2023-02-26T06:28:57;98099.41;;;0.76;73.82
34235;BME280;20500;49.856;20.290;2023-02-26T06:32:03;98105.00;;;0.75;73.86
34235;BME280;20500;49.856;20.290;2023-02-26T06:35:10;98109.39;;;0.76;73.80
34235;BME280;20500;49.856;20.290;2023-02-26T06:38:17;98120.61;;;0.78;73.78
34235;BME280;20500;49.856;20.290;2023-02-26T06:41:23;98126.14;;;0.80;73.73
34235;BME280;20500;49.856;20.290;2023-02-26T06:44:28;98121.61;;;0.82;73.62
34235;BME280;20500;49.856;20.290;2023-02-26T06:47:34;98118.13;;;0.80;73.51
34235;BME280;20500;49.856;20.290;2023-02-26T06:50:40;98129.63;;;0.79;73.64
34235;BME280;20500;49.856;20.290;2023-02-26T06:53:47;98136.20;;;0.81;73.50
34235;BME280;20500;49.856;20.290;2023-02-26T06:56:53;98137.89;;;0.84;73.52
34235;BME280;20500;49.856;20.290;2023-02-26T07:00:02;98142.39;;;0.89;73.50
34235;BME280;20500;49.856;20.290;2023-02-26T07:03:11;98143.06;;;0.88;73.17
34235;BME280;20500;49.856;20.290;2023-02-26T07:06:17;98159.88;;;0.84;73.15
34235;BME280;20500;49.856;20.290;2023-02-26T07:09:42;98168.50;;;0.76;73.13
34235;BME280;20500;49.856;20.290;2023-02-26T07:12:49;98173.06;;;0.75;73.09
34235;BME280;20500;49.856;20.290;2023-02-26T07:15:56;98166.01;;;0.78;73.13
34235;BME280;20500;49.856;20.290;2023-02-26T07:19:02;98168.94;;;0.74;72.98
34235;BME280;20500;49.856;20.290;2023-02-26T07:22:07;98162.97;;;0.71;72.92
34235;BME280;20500;49.856;20.290;2023-02-26T07:25:13;98168.95;;;0.75;73.00
34235;BME280;20500;49.856;20.290;2023-02-26T07:28:20;98165.58;;;0.76;73.04
34235;BME280;20500;49.856;20.290;2023-02-26T07:31:27;98167.34;;;0.77;72.68
34235;BME280;20500;49.856;20.290;2023-02-26T07:34:31;98174.08;;;0.77;72.83
34235;BME280;20500;49.856;20.290;2023-02-26T07:37:38;98179.75;;;0.76;72.66
34235;BME280;20500;49.856;20.290;2023-02-26T07:40:42;98191.98;;;0.73;72.78
34235;BME280;20500;49.856;20.290;2023-02-26T07:43:48;98208.67;;;0.74;72.72
34235;BME280;20500;49.856;20.290;2023-02-26T07:46:53;98219.14;;;0.74;72.73
34235;BME280;20500;49.856;20.290;2023-02-26T07:49:59;98227.85;;;0.71;72.74
34235;BME280;20500;49.856;20.290;2023-02-26T07:53:04;98235.52;;;0.71;72.81
34235;BME280;20500;49.856;20.290;2023-02-26T07:56:10;98240.84;;;0.73;72.93
34235;BME280;20500;49.856;20.290;2023-02-26T07:59:16;98246.05;;;0.77;72.94
34235;BME280;20500;49.856;20.290;2023-02-26T08:02:21;98250.33;;;0.77;72.61
34235;BME280;20500;49.856;20.290;2023-02-26T08:05:28;98249.35;;;0.76;72.63
34235;BME280;20500;49.856;20.290;2023-02-26T08:08:34;98250.98;;;0.82;72.77
34235;BME280;20500;49.856;20.290;2023-02-26T08:11:39;98253.48;;;0.93;72.96
34235;BME280;20500;49.856;20.290;2023-02-26T08:14:45;98256.77;;;1.06;72.99
34235;BME280;20500;49.856;20.290;2023-02-26T08:17:53;98254.59;;;1.22;72.98
34235;BME280;20500;49.856;20.290;2023-02-26T08:21:00;98253.64;;;1.36;72.85
34235;BME280;20500;49.856;20.290;2023-02-26T08:24:07;98254.56;;;1.51;72.78
34235;BME280;20500;49.856;20.290;2023-02-26T08:27:13;98262.73;;;1.53;72.53
34235;BME280;20500;49.856;20.290;2023-02-26T08:30:20;98263.88;;;1.43;72.31
34235;BME280;20500;49.856;20.290;2023-02-26T08:33:26;98267.10;;;1.35;72.20
34235;BME280;20500;49.856;20.290;2023-02-26T08:36:31;98272.86;;;1.33;72.14
34235;BME280;20500;49.856;20.290;2023-02-26T08:39:38;98272.83;;;1.33;72.26
34235;BME280;20500;49.856;20.290;2023-02-26T08:42:44;98280.90;;;1.37;72.34
34235;BME280;20500;49.856;20.290;2023-02-26T08:45:50;98282.48;;;1.39;72.07
34235;BME280;20500;49.856;20.290;2023-02-26T08:48:55;98293.15;;;1.39;72.15
34235;BME280;20500;49.856;20.290;2023-02-26T08:52:01;98294.47;;;1.44;72.21
34235;BME280;20500;49.856;20.290;2023-02-26T08:55:09;98299.59;;;1.57;72.31
34235;BME280;20500;49.856;20.290;2023-02-26T08:58:15;98297.85;;;1.73;72.33
34235;BME280;20500;49.856;20.290;2023-02-26T09:01:20;98307.48;;;1.85;72.17
34235;BME280;20500;49.856;20.290;2023-02-26T09:04:26;98324.14;;;1.81;71.92
34235;BME280;20500;49.856;20.290;2023-02-26T09:07:35;98331.20;;;1.40;71.38
34235;BME280;20500;49.856;20.290;2023-02-26T09:10:41;98340.32;;;1.17;71.78
34235;BME280;20500;49.856;20.290;2023-02-26T09:13:47;98349.91;;;1.06;71.79
34235;BME280;20500;49.856;20.290;2023-02-26T09:16:54;98357.94;;;0.94;71.74
34235;BME280;20500;49.856;20.290;2023-02-26T09:19:58;98358.41;;;0.85;72.02
34235;BME280;20500;49.856;20.290;2023-02-26T09:23:04;98365.00;;;0.77;71.83
34235;BME280;20500;49.856;20.290;2023-02-26T09:26:09;98367.38;;;0.68;72.01
34235;BME280;20500;49.856;20.290;2023-02-26T09:29:15;98369.94;;;0.62;71.96
34235;BME280;20500;49.856;20.290;2023-02-26T09:32:21;98378.45;;;0.56;71.87
34235;BME280;20500;49.856;20.290;2023-02-26T09:35:30;98380.02;;;0.53;72.03
34235;BME280;20500;49.856;20.290;2023-02-26T09:38:36;98386.42;;;0.55;72.17
34235;BME280;20500;49.856;20.290;2023-02-26T09:41:42;98384.67;;;0.61;72.16
34235;BME280;20500;49.856;20.290;2023-02-26T09:44:50;98384.80;;;0.61;72.02
34235;BME280;20500;49.856;20.290;2023-02-26T09:47:58;98389.38;;;0.58;72.13
34235;BME280;20500;49.856;20.290;2023-02-26T09:51:10;98391.39;;;0.64;72.07
34235;BME280;20500;49.856;20.290;2023-02-26T09:54:20;98393.32;;;0.66;71.94
34235;BME280;20500;49.856;20.290;2023-02-26T09:57:31;98397.44;;;0.74;72.12
34235;BME280;20500;49.856;20.290;2023-02-26T10:00:44;98399.27;;;0.91;72.37
34235;BME280;20500;49.856;20.290;2023-02-26T10:03:58;98392.39;;;1.16;72.26
34235;BME280;20500;49.856;20.290;2023-02-26T10:07:16;98390.79;;;1.43;72.33
34235;BME280;20500;49.856;20.290;2023-02-26T10:10:32;98396.06;;;1.54;71.89
34235;BME280;20500;49.856;20.290;2023-02-26T10:13:43;98400.70;;;1.44;71.64
34235;BME280;20500;49.856;20.290;2023-02-26T10:17:04;98407.56;;;1.41;71.69
34235;BME280;20500;49.856;20.290;2023-02-26T10:20:16;98409.95;;;1.25;71.52
34235;BME280;20500;49.856;20.290;2023-02-26T10:23:31;98414.33;;;1.05;71.30
34235;BME280;20500;49.856;20.290;2023-02-26T10:26:44;98421.57;;;0.93;71.52
34235;BME280;20500;49.856;20.290;2023-02-26T10:29:58;98423.31;;;0.92;71.65
34235;BME280;20500;49.856;20.290;2023-02-26T10:33:13;98426.60;;;0.97;71.49
34235;BME280;20500;49.856;20.290;2023-02-26T10:36:26;98430.55;;;1.07;71.56
34235;BME280;20500;49.856;20.290;2023-02-26T10:39:41;98437.31;;;1.19;71.43
34235;BME280;20500;49.856;20.290;2023-02-26T10:42:51;98441.05;;;1.29;71.43
34235;BME280;20500;49.856;20.290;2023-02-26T10:46:07;98449.98;;;1.25;70.90
34235;BME280;20500;49.856;20.290;2023-02-26T10:49:24;98457.88;;;1.17;70.87
34235;BME280;20500;49.856;20.290;2023-02-26T10:52:36;98469.86;;;1.13;70.90
34235;BME280;20500;49.856;20.290;2023-02-26T10:55:44;98471.99;;;1.07;71.04
34235;BME280;20500;49.856;20.290;2023-02-26T10:58:52;98476.10;;;1.05;71.19
34235;BME280;20500;49.856;20.290;2023-02-26T11:01:59;98474.73;;;1.08;71.33
34235;BME280;20500;49.856;20.290;2023-02-26T11:05:12;98472.40;;;1.11;71.16
34235;BME280;20500;49.856;20.290;2023-02-26T11:08:24;98475.38;;;1.15;71.11
34235;BME280;20500;49.856;20.290;2023-02-26T11:11:43;98478.98;;;1.23;71.03
34235;BME280;20500;49.856;20.290;2023-02-26T11:14:50;98480.63;;;1.30;70.86
34235;BME280;20500;49.856;20.290;2023-02-26T11:17:59;98484.90;;;1.42;70.88
34235;BME280;20500;49.856;20.290;2023-02-26T11:21:07;98487.58;;;1.56;70.85
34235;BME280;20500;49.856;20.290;2023-02-26T11:24:17;98487.48;;;1.65;70.72
34235;BME280;20500;49.856;20.290;2023-02-26T11:27:26;98488.90;;;1.73;70.70
34235;BME280;20500;49.856;20.290;2023-02-26T11:30:37;98493.98;;;1.80;70.73
34235;BME280;20500;49.856;20.290;2023-02-26T11:33:47;98491.44;;;1.86;70.65
34235;BME280;20500;49.856;20.290;2023-02-26T11:36:56;98493.10;;;1.95;70.72
34235;BME280;20500;49.856;20.290;2023-02-26T11:40:12;98495.24;;;2.09;70.93
34235;BME280;20500;49.856;20.290;2023-02-26T11:43:20;98497.09;;;2.26;71.12
34235;BME280;20500;49.856;20.290;2023-02-26T11:46:28;98497.26;;;2.54;71.31
34235;BME280;20500;49.856;20.290;2023-02-26T11:49:34;98497.98;;;2.88;71.32
34235;BME280;20500;49.856;20.290;2023-02-26T11:52:47;98494.73;;;3.18;70.94
34235;BME280;20500;49.856;20.290;2023-02-26T11:56:02;98494.89;;;3.40;70.75
34235;BME280;20500;49.856;20.290;2023-02-26T11:59:17;98496.40;;;3.55;70.53
34235;BME280;20500;49.856;20.290;2023-02-26T12:02:26;98506.14;;;3.68;70.29
34235;BME280;20500;49.856;20.290;2023-02-26T12:05:36;98507.05;;;3.40;69.61
34235;BME280;20500;49.856;20.290;2023-02-26T12:08:43;98520.48;;;2.94;69.61
34235;BME280;20500;49.856;20.290;2023-02-26T12:11:54;98526.90;;;2.55;69.48
34235;BME280;20500;49.856;20.290;2023-02-26T12:15:16;98530.07;;;2.23;69.36
34235;BME280;20500;49.856;20.290;2023-02-26T12:18:34;98533.63;;;2.08;69.59
34235;BME280;20500;49.856;20.290;2023-02-26T12:21:47;98540.59;;;1.91;69.40
34235;BME280;20500;49.856;20.290;2023-02-26T12:25:13;98543.52;;;1.74;69.31
34235;BME280;20500;49.856;20.290;2023-02-26T12:29:00;98551.27;;;1.62;69.35
34235;BME280;20500;49.856;20.290;2023-02-26T12:32:21;98553.05;;;1.52;69.13
34235;BME280;20500;49.856;20.290;2023-02-26T12:35:48;98552.85;;;1.42;69.06
34235;BME280;20500;49.856;20.290;2023-02-26T12:39:07;98563.05;;;1.32;68.95
34235;BME280;20500;49.856;20.290;2023-02-26T12:42:28;98569.94;;;1.25;68.82
34235;BME280;20500;49.856;20.290;2023-02-26T12:45:46;98574.73;;;1.15;68.71
34235;BME280;20500;49.856;20.290;2023-02-26T12:49:10;98576.77;;;1.04;68.48
34235;BME280;20500;49.856;20.290;2023-02-26T12:52:35;98577.30;;;1.00;68.50
34235;BME280;20500;49.856;20.290;2023-02-26T12:55:53;98582.29;;;0.96;68.34
34235;BME280;20500;49.856;20.290;2023-02-26T12:59:10;98593.25;;;0.93;68.35
34235;BME280;20500;49.856;20.290;2023-02-26T13:06:21;98609.85;;;0.97;68.40
34235;BME280;20500;49.856;20.290;2023-02-26T13:09:35;98601.07;;;1.00;68.31
34235;BME280;20500;49.856;20.290;2023-02-26T13:13:06;98604.31;;;1.02;68.30
34235;BME280;20500;49.856;20.290;2023-02-26T13:16:33;98606.44;;;0.96;68.08
34235;BME280;20500;49.856;20.290;2023-02-26T13:19:45;98607.43;;;0.93;68.11
34235;BME280;20500;49.856;20.290;2023-02-26T13:22:56;98617.28;;;0.88;68.07
34235;BME280;20500;49.856;20.290;2023-02-26T13:26:07;98618.48;;;0.85;68.11
34235;BME280;20500;49.856;20.290;2023-02-26T13:29:17;98625.73;;;0.83;68.10
34235;BME280;20500;49.856;20.290;2023-02-26T13:32:27;98639.27;;;0.84;68.00
34235;BME280;20500;49.856;20.290;2023-02-26T13:35:35;98653.15;;;0.89;68.18
34235;BME280;20500;49.856;20.290;2023-02-26T13:39:05;98645.45;;;0.93;68.10
34235;BME280;20500;49.856;20.290;2023-02-26T13:42:23;98645.73;;;0.96;68.13
34235;BME280;20500;49.856;20.290;2023-02-26T13:45:42;98646.55;;;0.95;67.89
34235;BME280;20500;49.856;20.290;2023-02-26T13:48:55;98645.59;;;0.93;67.81
34235;BME280;20500;49.856;20.290;2023-02-26T13:52:04;98658.04;;;0.98;67.90
34235;BME280;20500;49.856;20.290;2023-02-26T13:55:19;98661.27;;;1.05;67.79
34235;BME280;20500;49.856;20.290;2023-02-26T13:58:41;98664.58;;;0.87;67.46
34235;BME280;20500;49.856;20.290;2023-02-26T14:01:52;98673.52;;;0.63;67.54
34235;BME280;20500;49.856;20.290;2023-02-26T14:04:59;98674.92;;;0.51;67.73
34235;BME280;20500;49.856;20.290;2023-02-26T14:08:24;98682.88;;;0.50;67.85
34235;BME280;20500;49.856;20.290;2023-02-26T14:11:55;98688.15;;;0.48;67.53
34235;BME280;20500;49.856;20.290;2023-02-26T14:15:38;98693.45;;;0.41;67.62
34235;BME280;20500;49.856;20.290;2023-02-26T14:18:52;98700.59;;;0.36;67.87
34235;BME280;20500;49.856;20.290;2023-02-26T14:22:12;98699.90;;;0.34;67.68
34235;BME280;20500;49.856;20.290;2023-02-26T14:25:26;98700.70;;;0.33;67.73
34235;BME280;20500;49.856;20.290;2023-02-26T14:28:44;98708.26;;;0.34;67.49
34235;BME280;20500;49.856;20.290;2023-02-26T14:32:13;98714.42;;;0.40;67.67
34235;BME280;20500;49.856;20.290;2023-02-26T14:35:23;98718.73;;;0.46;67.67
34235;BME280;20500;49.856;20.290;2023-02-26T14:38:33;98721.11;;;0.45;67.64
34235;BME280;20500;49.856;20.290;2023-02-26T14:41:41;98721.98;;;0.45;67.59
34235;BME280;20500;49.856;20.290;2023-02-26T14:44:49;98722.07;;;0.48;67.73
34235;BME280;20500;49.856;20.290;2023-02-26T14:47:59;98724.13;;;0.49;67.63
34235;BME280;20500;49.856;20.290;2023-02-26T14:51:17;98735.84;;;0.48;67.53
34235;BME280;20500;49.856;20.290;2023-02-26T14:54:44;98739.67;;;0.39;67.52
34235;BME280;20500;49.856;20.290;2023-02-26T14:58:01;98748.10;;;0.34;67.46
34235;BME280;20500;49.856;20.290;2023-02-26T15:01:18;98751.73;;;0.31;67.61
34235;BME280;20500;49.856;20.290;2023-02-26T15:04:45;98756.40;;;0.28;67.43
34235;BME280;20500;49.856;20.290;2023-02-26T15:08:06;98757.98;;;0.29;67.31
34235;BME280;20500;49.856;20.290;2023-02-26T15:11:31;98759.39;;;0.27;67.41
34235;BME280;20500;49.856;20.290;2023-02-26T15:18:16;98769.55;;;0.31;67.40
34235;BME280;20500;49.856;20.290;2023-02-26T15:21:32;98770.80;;;0.31;67.58
34235;BME280;20500;49.856;20.290;2023-02-26T15:24:44;98781.59;;;0.33;67.58
34235;BME280;20500;49.856;20.290;2023-02-26T15:27:51;98794.38;;;0.27;67.34
34235;BME280;20500;49.856;20.290;2023-02-26T15:30:58;98801.36;;;0.20;67.27
34235;BME280;20500;49.856;20.290;2023-02-26T15:34:08;98813.48;;;0.16;67.31
34235;BME280;20500;49.856;20.290;2023-02-26T15:37:24;98827.27;;;0.13;67.37
34235;BME280;20500;49.856;20.290;2023-02-26T15:40:34;98820.63;;;0.11;67.32
34235;BME280;20500;49.856;20.290;2023-02-26T15:43:43;98818.63;;;0.11;67.37
34235;BME280;20500;49.856;20.290;2023-02-26T15:46:55;98826.96;;;0.08;67.29
34235;BME280;20500;49.856;20.290;2023-02-26T15:50:04;98826.45;;;0.05;67.29
34235;BME280;20500;49.856;20.290;2023-02-26T15:53:15;98834.33;;;0.03;67.37
34235;BME280;20500;49.856;20.290;2023-02-26T15:56:25;98832.88;;;-0.02;67.26
34235;BME280;20500;49.856;20.290;2023-02-26T15:59:33;98834.21;;;-0.05;67.20
34235;BME280;20500;49.856;20.290;2023-02-26T16:02:45;98842.29;;;-0.04;67.33
34235;BME280;20500;49.856;20.290;2023-02-26T16:05:56;98844.11;;;-0.02;67.27
34235;BME280;20500;49.856;20.290;2023-02-26T16:09:04;98850.13;;;-0.03;67.29
34235;BME280;20500;49.856;20.290;2023-02-26T16:12:14;98854.48;;;-0.05;67.34
34235;BME280;20500;49.856;20.290;2023-02-26T16:15:27;98856.06;;;-0.04;67.23
34235;BME280;20500;49.856;20.290;2023-02-26T16:18:35;98864.90;;;-0.03;67.20
34235;BME280;20500;49.856;20.290;2023-02-26T16:21:42;98868.63;;;-0.05;67.37
34235;BME280;20500;49.856;20.290;2023-02-26T16:24:54;98876.09;;;-0.07;67.29
34235;BME280;20500;49.856;20.290;2023-02-26T16:28:04;98879.33;;;-0.10;67.29
34235;BME280;20500;49.856;20.290;2023-02-26T16:31:17;98896.23;;;-0.14;67.20
34235;BME280;20500;49.856;20.290;2023-02-26T16:34:38;98904.03;;;-0.20;67.06
34235;BME280;20500;49.856;20.290;2023-02-26T16:37:47;98906.10;;;-0.26;67.06
34235;BME280;20500;49.856;20.290;2023-02-26T16:40:59;98917.23;;;-0.29;67.12
34235;BME280;20500;49.856;20.290;2023-02-26T16:44:36;98919.27;;;-0.32;67.12
34235;BME280;20500;49.856;20.290;2023-02-26T16:47:44;98923.29;;;-0.36;67.11
34235;BME280;20500;49.856;20.290;2023-02-26T16:50:56;98928.20;;;-0.37;67.05
34235;BME280;20500;49.856;20.290;2023-02-26T16:54:07;98933.78;;;-0.38;67.10
34235;BME280;20500;49.856;20.290;2023-02-26T16:57:18;98942.67;;;-0.40;67.33
34235;BME280;20500;49.856;20.290;2023-02-26T17:00:26;98947.90;;;-0.41;67.21
34235;BME280;20500;49.856;20.290;2023-02-26T17:03:35;98960.12;;;-0.42;67.12